createdAt,value
2023-03-12T00:02:18.507Z,26.52
2023-03-12T00:04:46.527Z,24.95
2023-03-12T00:07:14.338Z,25.08
2023-03-12T00:09:42.410Z,26.38
2023-03-12T00:12:10.494Z,25.67
2023-03-12T00:14:38.347Z,28.27
2023-03-12T00:17:06.212Z,26.73
2023-03-12T00:19:34.137Z,29.17
2023-03-12T00:22:01.949Z,28.25
2023-03-12T00:24:29.437Z,26.83
2023-03-12T00:26:56.935Z,26.92
2023-03-12T00:29:24.614Z,26.25
2023-03-12T00:31:54.218Z,26.30
2023-03-12T00:34:22.168Z,25.55
2023-03-12T00:36:50.095Z,30.10
2023-03-12T00:39:17.987Z,34.13
2023-03-12T00:41:45.498Z,30.42
2023-03-12T00:44:13.048Z,32.00
2023-03-12T00:46:40.686Z,26.90
2023-03-12T00:49:08.602Z,29.40
2023-03-12T00:51:36.165Z,29.27
2023-03-12T00:54:04.340Z,31.58
2023-03-12T00:56:32.299Z,27.42
2023-03-12T00:58:59.952Z,27.38
2023-03-12T01:01:27.994Z,27.48
2023-03-12T01:03:57.200Z,27.52
2023-03-12T01:06:25.113Z,25.08
2023-03-12T01:08:52.649Z,20.17
2023-03-12T01:11:20.931Z,18.73
2023-03-12T01:13:49.477Z,19.45
2023-03-12T01:16:18.391Z,16.50
2023-03-12T01:18:46.082Z,15.27
2023-03-12T01:21:14.101Z,16.95
2023-03-12T01:23:41.976Z,14.27
2023-03-12T01:26:09.788Z,12.98
2023-03-12T01:28:37.255Z,15.27
2023-03-12T01:31:10.815Z,14.32
2023-03-12T01:33:39.045Z,16.77
2023-03-12T01:36:16.150Z,14.73
2023-03-12T01:38:44.623Z,16.75
2023-03-12T01:41:12.464Z,11.75
2023-03-12T01:43:40.255Z,9.77
2023-03-12T01:46:08.254Z,16.50
2023-03-12T01:49:01.973Z,17.25
2023-03-12T01:51:42.070Z,20.85
2023-03-12T01:54:15.664Z,16.58
2023-03-12T01:56:43.536Z,21.60
2023-03-12T01:59:16.108Z,17.88
2023-03-12T02:04:14.361Z,18.50
2023-03-12T02:07:12.070Z,20.02
2023-03-12T02:09:49.598Z,23.90
2023-03-12T02:12:17.967Z,21.67
2023-03-12T02:14:45.952Z,24.73
2023-03-12T02:17:13.971Z,25.60
2023-03-12T02:20:18.401Z,19.38
2023-03-12T02:23:12.803Z,29.63
2023-03-12T02:25:46.328Z,35.17
2023-03-12T02:28:16.203Z,30.38
2023-03-12T02:30:48.804Z,25.60
2023-03-12T02:33:17.238Z,23.42
2023-03-12T02:35:47.008Z,31.08
2023-03-12T02:38:51.103Z,22.17
2023-03-12T02:41:54.180Z,23.40
2023-03-12T02:44:23.954Z,28.90
2023-03-12T02:46:58.332Z,12.55
2023-03-12T02:49:28.040Z,39.10
2023-03-12T02:51:56.500Z,16.20
2023-03-12T02:54:24.422Z,25.83
2023-03-12T02:56:52.589Z,21.92
2023-03-12T02:59:21.976Z,24.38
2023-03-12T03:01:54.471Z,29.48
2023-03-12T03:04:22.476Z,40.70
2023-03-12T03:06:50.754Z,39.92
2023-03-12T03:09:19.362Z,31.23
2023-03-12T03:11:46.988Z,29.75
2023-03-12T03:14:15.207Z,37.13
2023-03-12T03:16:42.713Z,29.42
2023-03-12T03:19:11.421Z,28.45
2023-03-12T03:21:38.993Z,24.48
2023-03-12T03:24:06.821Z,37.75
2023-03-12T03:26:34.479Z,29.20
2023-03-12T03:29:02.222Z,27.35
2023-03-12T03:31:30.221Z,20.92
2023-03-12T03:33:58.302Z,37.45
2023-03-12T03:36:26.304Z,23.75
2023-03-12T03:39:07.157Z,30.00
2023-03-12T03:41:35.029Z,23.40
2023-03-12T03:44:05.170Z,23.85
2023-03-12T03:46:37.562Z,36.40
2023-03-12T03:49:08.212Z,25.50
2023-03-12T03:51:37.237Z,30.77
2023-03-12T03:54:09.742Z,33.47
2023-03-12T03:56:37.808Z,35.65
2023-03-12T03:59:06.695Z,34.58
2023-03-12T04:01:38.227Z,38.70
2023-03-12T04:04:06.164Z,38.13
2023-03-12T04:06:35.473Z,34.53
2023-03-12T04:09:03.510Z,32.05
2023-03-12T04:11:32.607Z,39.05
2023-03-12T04:14:01.887Z,23.50
2023-03-12T04:16:32.279Z,30.87
2023-03-12T04:19:01.135Z,32.35
2023-03-12T04:21:28.908Z,24.85
2023-03-12T04:23:57.398Z,48.33
2023-03-12T04:26:29.901Z,40.55
2023-03-12T04:28:58.423Z,39.53
2023-03-12T04:31:26.341Z,33.47
2023-03-12T04:33:54.363Z,37.08
2023-03-12T04:36:24.612Z,35.88
2023-03-12T04:38:54.380Z,27.98
2023-03-12T04:41:26.762Z,42.03
2023-03-12T04:44:01.820Z,25.58
2023-03-12T04:46:29.899Z,35.78
2023-03-12T04:48:58.214Z,41.70
2023-03-12T04:51:26.095Z,28.95
2023-03-12T04:53:53.944Z,28.85
2023-03-12T04:56:22.811Z,32.30
2023-03-12T04:58:51.504Z,34.45
2023-03-12T05:01:26.053Z,23.83
2023-03-12T05:03:54.579Z,42.55
2023-03-12T05:06:23.986Z,36.63
2023-03-12T05:08:52.890Z,17.13
2023-03-12T05:11:21.313Z,30.63
2023-03-12T05:13:49.526Z,29.15
2023-03-12T05:16:17.962Z,33.22
2023-03-12T05:18:47.326Z,33.97
2023-03-12T05:21:17.065Z,28.67
2023-03-12T05:23:46.157Z,30.33
2023-03-12T05:26:24.210Z,24.85
2023-03-12T05:28:54.916Z,23.95
2023-03-12T05:31:25.504Z,28.30
2023-03-12T05:33:53.877Z,32.70
2023-03-12T05:36:23.054Z,43.00
2023-03-12T05:38:51.006Z,27.00
2023-03-12T05:41:26.970Z,26.77
2023-03-12T05:43:59.412Z,41.47
2023-03-12T05:46:29.241Z,27.23
2023-03-12T05:48:57.513Z,33.95
2023-03-12T05:51:25.627Z,34.75
2023-03-12T05:53:53.504Z,32.72
2023-03-12T05:56:21.029Z,24.23
2023-03-12T05:58:50.013Z,25.55
2023-03-12T06:01:23.896Z,32.60
2023-03-12T06:03:52.928Z,34.05
2023-03-12T06:06:21.024Z,25.67
2023-03-12T06:08:49.225Z,29.65
2023-03-12T06:11:17.177Z,23.80
2023-03-12T06:13:44.749Z,34.95
2023-03-12T06:16:21.542Z,32.85
2023-03-12T06:18:52.690Z,41.38
2023-03-12T06:21:22.286Z,23.75
2023-03-12T06:23:50.999Z,27.27
2023-03-12T06:26:51.693Z,30.10
2023-03-12T06:29:19.573Z,36.60
2023-03-12T06:31:48.331Z,41.20
2023-03-12T06:34:16.977Z,35.33
2023-03-12T06:36:45.040Z,30.23
2023-03-12T06:39:13.199Z,34.92
2023-03-12T06:41:41.871Z,21.98
2023-03-12T06:44:09.977Z,28.40
2023-03-12T06:46:38.276Z,31.95
2023-03-12T06:49:06.240Z,27.33
2023-03-12T06:51:34.100Z,29.98
2023-03-12T06:54:02.662Z,28.75
2023-03-12T06:56:31.141Z,22.45
2023-03-12T06:58:59.477Z,31.38
2023-03-12T07:01:27.793Z,29.65
2023-03-12T07:03:55.784Z,30.05
2023-03-12T07:06:24.131Z,24.30
2023-03-12T07:08:52.550Z,31.10
2023-03-12T07:11:20.194Z,25.08
2023-03-12T07:13:48.513Z,28.13
2023-03-12T07:16:16.067Z,37.53
2023-03-12T07:18:44.196Z,31.67
2023-03-12T07:21:12.088Z,15.07
2023-03-12T07:23:39.947Z,26.23
2023-03-12T07:26:08.055Z,32.35
2023-03-12T07:28:35.963Z,31.48
2023-03-12T07:31:04.723Z,28.17
2023-03-12T07:33:33.069Z,30.23
2023-03-12T07:36:01.144Z,35.10
2023-03-12T07:38:28.957Z,33.85
2023-03-12T07:40:58.553Z,33.65
2023-03-12T07:43:26.504Z,23.77
2023-03-12T07:45:55.560Z,38.17
2023-03-12T07:48:23.929Z,28.05
2023-03-12T07:50:52.188Z,32.42
2023-03-12T07:53:20.257Z,25.73
2023-03-12T07:55:48.475Z,37.33
2023-03-12T07:58:17.002Z,27.55
2023-03-12T08:00:45.158Z,23.92
2023-03-12T08:03:13.656Z,32.17
2023-03-12T08:05:41.565Z,26.92
2023-03-12T08:08:09.765Z,34.40
2023-03-12T08:10:37.681Z,26.20
2023-03-12T08:13:05.398Z,38.03
2023-03-12T08:15:33.558Z,28.38
2023-03-12T08:18:01.521Z,29.33
2023-03-12T08:20:29.370Z,29.45
2023-03-12T08:22:57.422Z,30.10
2023-03-12T08:25:25.256Z,26.10
2023-03-12T08:27:53.158Z,23.17
2023-03-12T08:30:21.124Z,22.25
2023-03-12T08:32:48.840Z,34.55
2023-03-12T08:35:16.552Z,34.97
2023-03-12T08:37:44.538Z,31.15
2023-03-12T08:40:15.250Z,30.75
2023-03-12T08:42:44.657Z,23.60
2023-03-12T08:45:13.112Z,27.83
2023-03-12T08:47:41.822Z,31.83
2023-03-12T08:50:14.457Z,31.77
2023-03-12T08:52:42.340Z,27.67
2023-03-12T08:55:11.731Z,23.65
2023-03-12T08:57:40.609Z,28.70
2023-03-12T09:00:16.205Z,20.17
2023-03-12T09:02:45.156Z,27.02
2023-03-12T09:05:13.425Z,43.08
2023-03-12T09:07:41.484Z,30.95
2023-03-12T09:10:10.289Z,24.90
2023-03-12T09:12:37.939Z,28.35
2023-03-12T09:15:06.197Z,21.58
2023-03-12T09:17:34.097Z,18.40
2023-03-12T09:20:01.957Z,24.08
2023-03-12T09:22:30.609Z,23.30
2023-03-12T09:24:58.202Z,24.20
2023-03-12T09:27:26.181Z,25.30
2023-03-12T09:30:00.529Z,22.92
2023-03-12T09:32:29.289Z,21.35
2023-03-12T09:34:56.870Z,39.35
2023-03-12T09:37:24.682Z,25.27
2023-03-12T09:39:53.315Z,17.73
2023-03-12T09:42:47.586Z,35.10
2023-03-12T09:45:32.662Z,20.50
2023-03-12T09:48:03.033Z,29.23
2023-03-12T09:50:35.237Z,18.20
2023-03-12T09:53:20.932Z,23.83
2023-03-12T09:55:51.973Z,22.58
2023-03-12T09:58:32.230Z,26.52
2023-03-12T10:01:24.456Z,20.48
2023-03-12T10:04:56.338Z,14.65
2023-03-12T10:07:35.829Z,17.75
2023-03-12T10:10:51.444Z,16.75
2023-03-12T10:13:34.266Z,15.68
2023-03-12T10:16:13.938Z,19.55
2023-03-12T10:18:48.519Z,23.83
2023-03-12T10:21:42.264Z,23.15
2023-03-12T10:24:10.210Z,25.40
2023-03-12T10:26:47.401Z,20.65
2023-03-12T10:29:15.404Z,21.58
2023-03-12T10:31:59.132Z,19.20
2023-03-12T10:34:37.847Z,22.63
2023-03-12T10:37:34.069Z,17.25
2023-03-12T10:40:02.405Z,24.35
2023-03-12T10:42:30.503Z,23.02
2023-03-12T10:45:10.011Z,15.77
2023-03-12T10:47:37.967Z,22.52
2023-03-12T10:50:13.304Z,27.77
2023-03-12T10:52:41.572Z,23.25
2023-03-12T10:55:26.524Z,19.17
2023-03-12T10:57:54.533Z,22.95
2023-03-12T11:00:26.704Z,19.92
2023-03-12T11:03:00.068Z,24.50
2023-03-12T11:05:37.245Z,21.48
2023-03-12T11:08:24.211Z,26.85
2023-03-12T11:10:52.245Z,18.92
2023-03-12T11:13:24.323Z,19.42
2023-03-12T11:15:53.396Z,24.58
2023-03-12T11:18:46.700Z,18.08
2023-03-12T11:21:16.929Z,20.23
2023-03-12T11:24:07.331Z,16.05
2023-03-12T11:26:43.230Z,21.83
2023-03-12T11:29:31.404Z,20.38
2023-03-12T11:32:08.207Z,17.30
2023-03-12T11:34:38.088Z,20.77
2023-03-12T11:37:06.033Z,19.13
2023-03-12T11:39:33.856Z,15.25
2023-03-12T11:42:24.197Z,26.88
2023-03-12T11:45:19.061Z,19.80
2023-03-12T11:47:58.240Z,19.98
2023-03-12T11:50:41.996Z,22.40
2023-03-12T11:53:37.249Z,22.55
2023-03-12T11:56:16.614Z,15.43
2023-03-12T11:59:11.612Z,24.38
2023-03-12T12:02:16.645Z,20.50
2023-03-12T12:04:51.412Z,15.65
2023-03-12T12:07:39.998Z,19.92
2023-03-12T12:10:26.491Z,26.17
2023-03-12T12:13:18.812Z,18.17
2023-03-12T12:16:20.938Z,25.77
2023-03-12T12:18:58.175Z,25.58
2023-03-12T12:21:47.387Z,26.25
2023-03-12T12:24:18.113Z,19.88
2023-03-12T12:26:51.764Z,17.48
2023-03-12T12:29:47.237Z,19.85
2023-03-12T12:32:22.208Z,22.02
2023-03-12T12:34:51.251Z,21.88
2023-03-12T12:37:33.383Z,18.05
2023-03-12T12:40:20.203Z,19.02
2023-03-12T12:43:19.688Z,28.88
2023-03-12T12:45:50.069Z,15.85
2023-03-12T12:48:38.598Z,14.45
2023-03-12T12:51:09.032Z,19.30
2023-03-12T12:54:06.117Z,12.13
2023-03-12T12:56:50.763Z,17.92
2023-03-12T12:59:23.335Z,17.60
2023-03-12T13:01:54.728Z,22.70
2023-03-12T13:04:30.494Z,29.20
2023-03-12T13:06:58.147Z,17.08
2023-03-12T13:09:38.225Z,15.00
2023-03-12T13:12:15.286Z,22.48
2023-03-12T13:14:45.159Z,29.23
2023-03-12T13:17:34.856Z,19.08
2023-03-12T13:20:11.340Z,21.42
2023-03-12T13:22:50.665Z,19.27
2023-03-12T13:25:27.247Z,22.88
2023-03-12T13:28:17.240Z,27.95
2023-03-12T13:30:54.506Z,21.67
2023-03-12T13:34:17.525Z,30.58
2023-03-12T13:36:51.248Z,18.70
2023-03-12T13:39:28.688Z,26.92
2023-03-12T13:41:57.301Z,22.65
2023-03-12T13:44:45.904Z,24.30
2023-03-12T13:47:37.923Z,25.63
2023-03-12T13:50:06.878Z,24.88
2023-03-12T13:52:41.429Z,15.23
2023-03-12T13:55:14.910Z,18.17
2023-03-12T13:57:43.367Z,17.13
2023-03-12T14:00:31.280Z,22.70
2023-03-12T14:03:23.429Z,25.20
2023-03-12T14:06:14.027Z,23.48
2023-03-12T14:09:07.187Z,22.17
2023-03-12T14:12:03.013Z,25.08
2023-03-12T14:14:54.896Z,15.05
2023-03-12T14:20:07.266Z,13.27
2023-03-12T14:22:37.557Z,19.85
2023-03-12T14:25:15.220Z,18.75
2023-03-12T14:27:47.418Z,19.70
2023-03-12T14:30:28.779Z,25.00
2023-03-12T14:33:01.168Z,17.27
2023-03-12T14:35:33.277Z,21.00
2023-03-12T14:38:06.127Z,14.82
2023-03-12T14:40:49.404Z,26.63
2023-03-12T14:43:27.881Z,22.77
2023-03-12T14:46:00.313Z,21.88
2023-03-12T14:48:29.754Z,23.00
2023-03-12T14:50:58.377Z,19.65
2023-03-12T14:53:32.245Z,23.88
2023-03-12T14:56:00.634Z,23.67
2023-03-12T14:58:28.442Z,19.15
2023-03-12T15:00:58.369Z,21.75
2023-03-12T15:03:27.553Z,23.42
2023-03-12T15:05:55.709Z,20.13
2023-03-12T15:08:23.996Z,14.63
2023-03-12T15:10:59.088Z,21.55
2023-03-12T15:13:28.120Z,19.85
2023-03-12T15:15:56.463Z,22.98
2023-03-12T15:18:24.548Z,22.65
2023-03-12T15:20:53.773Z,18.88
2023-03-12T15:23:23.484Z,18.95
2023-03-12T15:26:15.636Z,15.82
2023-03-12T15:28:44.264Z,19.27
2023-03-12T15:31:16.375Z,19.55
2023-03-12T15:33:44.867Z,16.42
2023-03-12T15:36:17.379Z,15.45
2023-03-12T15:38:48.039Z,18.50
2023-03-12T15:41:19.337Z,13.35
2023-03-12T15:43:49.300Z,19.95
2023-03-12T15:46:18.218Z,17.95
2023-03-12T15:49:04.230Z,15.85
2023-03-12T15:51:34.248Z,14.20
2023-03-12T15:54:14.123Z,14.07
2023-03-12T15:56:42.220Z,18.67
2023-03-12T15:59:25.235Z,20.27
2023-03-12T16:01:57.181Z,16.50
2023-03-12T16:04:24.984Z,11.10
2023-03-12T16:06:53.506Z,16.45
2023-03-12T16:09:26.332Z,19.17
2023-03-12T16:11:55.497Z,18.45
2023-03-12T16:14:24.879Z,20.75
2023-03-12T16:16:52.831Z,13.75
2023-03-12T16:19:21.977Z,11.82
2023-03-12T16:21:49.992Z,10.30
2023-03-12T16:24:17.817Z,8.98
2023-03-12T16:26:54.311Z,7.55
2023-03-12T16:29:23.040Z,13.02
2023-03-12T16:31:53.021Z,13.38
2023-03-12T16:34:20.657Z,9.15
2023-03-12T16:36:48.205Z,9.27
2023-03-12T16:39:18.691Z,10.77
2023-03-12T16:41:47.309Z,8.52
2023-03-12T16:44:20.027Z,10.65
2023-03-12T16:46:48.325Z,8.90
2023-03-12T16:49:17.271Z,11.13
2023-03-12T16:51:45.024Z,8.15
2023-03-12T16:54:13.262Z,8.30
2023-03-12T16:56:46.782Z,4.25
2023-03-12T16:59:26.315Z,9.43
2023-03-12T17:01:54.278Z,8.57
2023-03-12T17:04:22.115Z,4.47
2023-03-12T17:06:49.986Z,5.85
2023-03-12T17:09:17.820Z,9.45
2023-03-12T17:11:46.063Z,8.00
2023-03-12T17:14:19.264Z,7.75
2023-03-12T17:16:46.752Z,5.80
2023-03-12T17:19:14.800Z,10.13
2023-03-12T17:21:43.389Z,8.77
2023-03-12T17:24:14.326Z,7.40
2023-03-12T17:26:42.798Z,15.68
2023-03-12T17:29:10.711Z,6.82
2023-03-12T17:31:38.665Z,9.05
2023-03-12T17:34:06.185Z,7.63
2023-03-12T17:36:36.616Z,7.60
2023-03-12T17:39:04.800Z,9.10
2023-03-12T17:41:33.309Z,7.10
2023-03-12T17:44:02.217Z,7.03
2023-03-12T17:46:31.052Z,5.57
2023-03-12T17:48:58.774Z,3.97
2023-03-12T17:51:26.618Z,3.92
2023-03-12T17:53:55.735Z,7.45
2023-03-12T17:56:23.279Z,4.93
2023-03-12T17:58:51.338Z,6.75
2023-03-12T18:01:19.058Z,6.53
2023-03-12T18:03:47.106Z,5.85
2023-03-12T18:06:14.626Z,5.22
2023-03-12T18:08:42.233Z,5.82
2023-03-12T18:11:10.253Z,3.47
2023-03-12T18:13:40.776Z,4.25
2023-03-12T18:16:09.358Z,2.97
2023-03-12T18:18:37.359Z,4.47
2023-03-12T18:21:05.116Z,4.45
2023-03-12T18:23:32.860Z,6.47
2023-03-12T18:26:00.455Z,6.13
2023-03-12T18:28:28.726Z,5.55
2023-03-12T18:30:56.344Z,6.28
2023-03-12T18:33:23.930Z,5.78
2023-03-12T18:35:54.304Z,7.53
2023-03-12T18:38:22.139Z,7.57
2023-03-12T18:40:50.455Z,7.20
2023-03-12T18:43:19.730Z,7.35
2023-03-12T18:45:50.246Z,10.02
2023-03-12T18:48:18.237Z,10.23
2023-03-12T18:50:46.140Z,10.05
2023-03-12T18:53:13.939Z,11.07
2023-03-12T18:55:41.440Z,11.65
2023-03-12T18:58:08.987Z,13.10
2023-03-12T19:00:36.996Z,10.30
2023-03-12T19:03:05.133Z,10.48
2023-03-12T19:05:33.391Z,14.98
2023-03-12T19:08:00.869Z,16.48
2023-03-12T19:10:28.531Z,13.52
2023-03-12T19:12:56.074Z,13.00
2023-03-12T19:15:24.427Z,14.10
2023-03-12T19:17:52.927Z,13.85
2023-03-12T19:20:21.452Z,14.52
2023-03-12T19:22:49.126Z,11.68
2023-03-12T19:25:17.169Z,12.57
2023-03-12T19:27:44.629Z,14.60
2023-03-12T19:30:13.765Z,11.73
2023-03-12T19:32:44.205Z,14.45
2023-03-12T19:35:14.259Z,14.27
2023-03-12T19:37:42.915Z,8.48
2023-03-12T19:40:11.081Z,11.18
2023-03-12T19:42:38.981Z,11.30
2023-03-12T19:45:07.207Z,10.00
2023-03-12T19:47:34.957Z,10.38
2023-03-12T19:50:03.067Z,9.32
2023-03-12T19:52:30.614Z,8.35
2023-03-12T19:55:04.687Z,12.07
2023-03-12T19:57:34.169Z,13.25
2023-03-12T20:00:02.093Z,11.60
2023-03-12T20:02:32.341Z,6.88
2023-03-12T20:05:00.230Z,9.38
2023-03-12T20:07:28.949Z,9.93
2023-03-12T20:09:56.512Z,13.95
2023-03-12T20:12:24.489Z,7.88
2023-03-12T20:14:52.455Z,10.95
2023-03-12T20:17:20.544Z,10.38
2023-03-12T20:19:47.984Z,12.30
2023-03-12T20:22:16.021Z,12.32
2023-03-12T20:24:43.853Z,9.50
2023-03-12T20:27:11.415Z,10.60
2023-03-12T20:29:39.165Z,13.40
2023-03-12T20:32:06.829Z,14.55
2023-03-12T20:34:34.461Z,18.85
2023-03-12T20:37:02.020Z,17.63
2023-03-12T20:39:30.163Z,14.65
2023-03-12T20:41:58.164Z,14.98
2023-03-12T20:44:26.031Z,12.45
2023-03-12T20:46:53.954Z,10.32
2023-03-12T20:49:21.410Z,13.98
2023-03-12T20:51:48.969Z,13.13
2023-03-12T20:54:16.659Z,11.35
2023-03-12T20:56:44.924Z,10.45
2023-03-12T20:59:13.268Z,11.27
2023-03-12T21:01:41.152Z,14.30
2023-03-12T21:04:08.784Z,15.98
2023-03-12T21:06:37.033Z,11.75
2023-03-12T21:09:04.638Z,13.38
2023-03-12T21:11:32.744Z,10.40
2023-03-12T21:14:00.243Z,9.52
2023-03-12T21:16:28.370Z,7.43
2023-03-12T21:18:57.721Z,9.20
2023-03-12T21:21:26.027Z,8.20
2023-03-12T21:23:53.981Z,9.68
2023-03-12T21:26:22.057Z,8.75
2023-03-12T21:28:49.910Z,10.05
2023-03-12T21:31:18.282Z,8.82
2023-03-12T21:33:46.329Z,7.65
2023-03-12T21:36:14.911Z,10.18
2023-03-12T21:38:43.336Z,8.35
2023-03-12T21:41:15.548Z,9.18
2023-03-12T21:43:43.942Z,9.85
2023-03-12T21:46:16.159Z,8.82
2023-03-12T21:48:45.841Z,8.88
2023-03-12T21:51:15.393Z,8.55
2023-03-12T21:53:42.923Z,10.15
2023-03-12T21:56:11.448Z,6.95
2023-03-12T21:58:39.261Z,6.60
2023-03-12T22:01:17.967Z,9.07
2023-03-12T22:03:46.670Z,7.60
2023-03-12T22:06:15.743Z,8.18
2023-03-12T22:08:44.463Z,7.60
2023-03-12T22:11:12.323Z,7.35
2023-03-12T22:13:40.260Z,6.47
2023-03-12T22:16:09.021Z,9.07
2023-03-12T22:18:42.281Z,7.32
2023-03-12T22:21:17.299Z,9.30
2023-03-12T22:23:47.941Z,7.47
2023-03-12T22:26:16.473Z,9.52
2023-03-12T22:28:48.147Z,7.53
2023-03-12T22:33:43.784Z,6.90
2023-03-12T22:36:13.753Z,8.75
2023-03-12T22:38:42.144Z,9.73
2023-03-12T22:41:30.420Z,8.30
2023-03-12T22:44:03.744Z,7.45
2023-03-12T22:46:31.520Z,7.30
2023-03-12T22:49:01.451Z,8.00
2023-03-12T22:51:30.701Z,7.25
2023-03-12T22:53:58.476Z,8.40
2023-03-12T22:56:26.642Z,7.65
2023-03-12T22:58:55.383Z,7.93
2023-03-12T23:01:23.995Z,9.00
2023-03-12T23:03:52.267Z,6.80
2023-03-12T23:06:22.703Z,7.88
2023-03-12T23:08:51.317Z,7.55
2023-03-12T23:11:19.629Z,6.97
2023-03-12T23:13:49.268Z,6.88
2023-03-12T23:16:23.161Z,8.35
2023-03-12T23:18:51.251Z,6.82
2023-03-12T23:21:21.984Z,6.95
2023-03-12T23:23:50.924Z,7.33
2023-03-12T23:26:28.649Z,6.95
2023-03-12T23:28:57.783Z,7.10
2023-03-12T23:31:27.550Z,6.63
2023-03-12T23:33:56.766Z,8.57
2023-03-12T23:36:25.238Z,6.53
2023-03-12T23:38:53.178Z,7.07
2023-03-12T23:41:22.331Z,5.60
2023-03-12T23:43:50.662Z,7.85
2023-03-12T23:46:19.452Z,5.43
2023-03-12T23:48:47.354Z,5.95
2023-03-12T23:51:15.346Z,6.25
2023-03-12T23:53:44.289Z,6.97
2023-03-12T23:56:14.745Z,4.95
2023-03-12T23:58:43.545Z,5.00
